This is the latest recevied weather packets stored in our database for station/object OE-11138. If no packets are shown the sender has not sent any weather packets the latest 10 day(s).
| Time | Temp. | Humidity | Pressure | Rain* | Wind** | Luminosity | Snow |
|---|---|---|---|---|---|---|---|
| 1787823697 | 15° C | 55% | 719.4 hPa | 0 mm | - | 631 W/m² | - |
| 1787823324 | 15° C | 56% | 719.1 hPa | 0 mm | - | 565 W/m² | - |
| 1787822723 | 15° C | 54% | 718.9 hPa | 0 mm | - | 571 W/m² | - |
| 1787821897 | 15° C | 55% | 718.8 hPa | 0 mm | - | 322 W/m² | - |
| 1787821523 | 15° C | 54% | 719 hPa | 0 mm | - | 328 W/m² | - |
| 1787820924 | 15° C | 50% | 719.1 hPa | 0 mm | - | 407 W/m² | - |
| 1787820097 | 15° C | 49% | 719 hPa | 0 mm | - | 395 W/m² | - |
| 1787819724 | 15.56° C | 46% | 719.1 hPa | 0 mm | - | 407 W/m² | - |
| 1787819124 | 15° C | 50% | 718.9 hPa | 0 mm | - | 407 W/m² | - |
| 1787818297 | 15° C | 47% | 718.9 hPa | 0 mm | - | 407 W/m² | - |
| 1787817923 | 14.44° C | 50% | 718.7 hPa | 0 mm | - | 370 W/m² | - |
| 1787817323 | 14.44° C | 53% | 718.6 hPa | 0 mm | - | 316 W/m² | - |
| 1787816497 | 14.44° C | 50% | 718.5 hPa | 0 mm | - | 431 W/m² | - |
| 1787816123 | 14.44° C | 54% | 718.4 hPa | 0 mm | - | 407 W/m² | - |
| 1787815520 | 14.44° C | 51% | 718.4 hPa | 0 mm | - | 364 W/m² | - |
| 1787814697 | 13.89° C | 56% | 718.1 hPa | 0 mm | - | 279 W/m² | - |
| 1787813724 | 14.44° C | 52% | 718.3 hPa | 0 mm | - | 267 W/m² | - |
| 1787812897 | 15.56° C | 47% | 718.5 hPa | 0 mm | - | 267 W/m² | - |
| 1787812524 | 15.56° C | 46% | 718.5 hPa | 0 mm | - | 243 W/m² | - |
| 1787811924 | 15° C | 44% | 718.4 hPa | 0 mm | - | 170 W/m² | - |
| 1787811336 | 15° C | 46% | 718.4 hPa | 0 mm | - | 97 W/m² | - |
| 1787810724 | 15° C | 43% | 718.5 hPa | 0 mm | - | 79 W/m² | - |
| 1787810124 | 15° C | 43% | 718.6 hPa | 0 mm | - | 55 W/m² | - |
| 1787809297 | 13.89° C | 47% | 718.4 hPa | 0 mm | - | 43 W/m² | - |
| 1787808924 | 13.89° C | 49% | 718.2 hPa | 0 mm | - | 36 W/m² | - |
* Rain latest hour (hover to see other rain measurements)
** Current wind speed in m/s (hover to see current wind gust speed)